Time,TemperatureF,DewpointF,PressureIn,WindDirection,WindDirectionDegrees,WindSpeedMPH,WindSpeedGustMPH,Humidity,HourlyPrecipIn,Conditions,Clouds,dailyrainin,SoftwareType,DateUTC
2013-08-26 00:06:00,60.0,59.0,30.26,West,264,0.0,0.0,96,0.00,,,0.00,weatherlink.com 1.10,2013-08-26 04:06:00,
2013-08-26 00:21:00,59.6,59.0,30.26,West,264,0.0,0.0,97,0.00,,,0.00,weatherlink.com 1.10,2013-08-26 04:21:00,
2013-08-26 00:36:00,59.6,59.0,30.25,West,264,0.0,0.0,96,0.00,,,0.00,weatherlink.com 1.10,2013-08-26 04:36:00,
2013-08-26 00:51:00,59.2,58.0,30.26,West,264,0.0,0.0,97,0.00,,,0.00,weatherlink.com 1.10,2013-08-26 04:51:00,
2013-08-26 01:06:00,58.9,58.0,30.26,West,264,0.0,0.0,97,0.00,,,0.00,weatherlink.com 1.10,2013-08-26 05:06:00,
2013-08-26 01:21:00,58.6,58.0,30.25,West,264,0.0,0.0,97,0.00,,,0.00,weatherlink.com 1.10,2013-08-26 05:21:00,
2013-08-26 01:36:00,58.5,58.0,30.25,West,264,0.0,0.0,97,0.00,,,0.00,weatherlink.com 1.10,2013-08-26 05:36:00,
2013-08-26 01:51:00,58.2,57.0,30.25,West,264,0.0,0.0,97,0.00,,,0.00,weatherlink.com 1.10,2013-08-26 05:51:00,
2013-08-26 02:06:00,57.8,57.0,30.24,West,264,0.0,0.0,97,0.00,,,0.00,weatherlink.com 1.10,2013-08-26 06:06:00,
2013-08-26 02:21:00,57.7,57.0,30.23,West,264,0.0,0.0,97,0.00,,,0.00,weatherlink.com 1.10,2013-08-26 06:21:00,
2013-08-26 02:36:00,57.5,57.0,30.23,West,264,0.0,0.0,97,0.00,,,0.00,weatherlink.com 1.10,2013-08-26 06:36:00,
2013-08-26 02:51:00,57.2,56.0,30.23,West,264,0.0,0.0,97,0.00,,,0.00,weatherlink.com 1.10,2013-08-26 06:51:00,
2013-08-26 03:06:00,56.9,56.0,30.23,West,264,0.0,0.0,97,0.00,,,0.00,weatherlink.com 1.10,2013-08-26 07:06:00,
2013-08-26 03:21:00,56.7,56.0,30.24,West,264,0.0,0.0,97,0.00,,,0.00,weatherlink.com 1.10,2013-08-26 07:21:00,
2013-08-26 03:36:00,56.8,56.0,30.24,West,264,0.0,0.0,97,0.00,,,0.00,weatherlink.com 1.10,2013-08-26 07:36:00,
2013-08-26 03:51:00,56.5,56.0,30.23,West,264,1.0,1.0,97,0.00,,,0.00,weatherlink.com 1.10,2013-08-26 07:51:00,
2013-08-26 04:07:00,56.5,56.0,30.22,SSW,207,2.0,3.0,98,0.00,,,0.00,weatherlink.com 1.10,2013-08-26 08:07:00,
2013-08-26 04:22:00,56.4,56.0,30.22,SSW,207,0.0,1.0,97,0.00,,,0.00,weatherlink.com 1.10,2013-08-26 08:22:00,
2013-08-26 04:37:00,56.2,56.0,30.22,SSW,207,0.0,0.0,98,0.00,,,0.00,weatherlink.com 1.10,2013-08-26 08:37:00,
2013-08-26 04:52:00,56.0,55.0,30.22,SSW,207,0.0,1.0,97,0.00,,,0.00,weatherlink.com 1.10,2013-08-26 08:52:00,
2013-08-26 05:07:00,55.7,55.0,30.22,SSW,207,0.0,0.0,97,0.00,,,0.00,weatherlink.com 1.10,2013-08-26 09:07:00,
2013-08-26 05:22:00,55.3,55.0,30.22,SSW,207,0.0,0.0,97,0.00,,,0.00,weatherlink.com 1.10,2013-08-26 09:22:00,
2013-08-26 05:37:00,55.3,55.0,30.22,SSW,207,0.0,0.0,97,0.00,,,0.00,weatherlink.com 1.10,2013-08-26 09:37:00,
2013-08-26 05:52:00,55.1,54.0,30.21,SSW,207,0.0,0.0,97,0.00,,,0.00,weatherlink.com 1.10,2013-08-26 09:52:00,
2013-08-26 06:07:00,55.1,55.0,30.21,SSW,207,0.0,0.0,98,0.00,,,0.00,weatherlink.com 1.10,2013-08-26 10:07:00,
2013-08-26 06:22:00,54.8,54.0,30.22,SSW,207,0.0,0.0,97,0.00,,,0.00,weatherlink.com 1.10,2013-08-26 10:22:00,
2013-08-26 06:37:00,54.7,54.0,30.22,SSW,207,0.0,0.0,98,0.00,,,0.00,weatherlink.com 1.10,2013-08-26 10:37:00,
2013-08-26 06:52:00,54.7,54.0,30.23,SSW,207,0.0,0.0,98,0.00,,,0.00,weatherlink.com 1.10,2013-08-26 10:52:00,
2013-08-26 07:07:00,54.7,54.0,30.24,SSW,207,0.0,1.0,97,0.00,,,0.00,weatherlink.com 1.10,2013-08-26 11:07:00,
2013-08-26 07:22:00,54.7,54.0,30.23,SSW,207,0.0,1.0,98,0.00,,,0.00,weatherlink.com 1.10,2013-08-26 11:22:00,
2013-08-26 07:37:00,55.1,55.0,30.24,SSW,207,0.0,1.0,98,0.00,,,0.00,weatherlink.com 1.10,2013-08-26 11:37:00,
2013-08-26 07:52:00,55.7,55.0,30.24,SSW,207,0.0,0.0,98,0.00,,,0.00,weatherlink.com 1.10,2013-08-26 11:52:00,
2013-08-26 07:59:00,56.0,55.4,30.24,SSW,207,0.0,1.0,98,0.00,,,0.00,Wunderground v.1.15,2013-08-26 11:59:00,
2013-08-26 08:05:00,56.2,55.6,30.24,SSW,207,0.0,0.0,98,0.00,,,0.00,Wunderground v.1.15,2013-08-26 12:05:00,
2013-08-26 08:10:00,56.6,56.0,30.24,SSW,207,0.0,0.0,98,0.00,,,0.00,Wunderground v.1.15,2013-08-26 12:10:00,
2013-08-26 08:15:00,57.2,56.6,30.24,SSW,207,0.0,1.0,98,0.00,,,0.00,Wunderground v.1.15,2013-08-26 12:15:00,
2013-08-26 08:21:00,57.9,57.1,30.24,SSW,207,0.0,1.0,97,0.00,,,0.00,Wunderground v.1.15,2013-08-26 12:21:00,
2013-08-26 08:27:00,58.3,57.2,30.24,SSW,207,0.0,1.0,96,0.00,,,0.00,Wunderground v.1.15,2013-08-26 12:27:00,
2013-08-26 08:33:00,58.8,57.7,30.24,SSW,207,1.0,1.0,96,0.00,,,0.00,Wunderground v.1.15,2013-08-26 12:33:00,
2013-08-26 08:38:00,59.2,58.1,30.25,South,186,1.0,1.0,96,0.00,,,0.00,Wunderground v.1.15,2013-08-26 12:38:00,
2013-08-26 08:43:00,59.5,58.4,30.24,South,186,1.0,1.0,96,0.00,,,0.00,Wunderground v.1.15,2013-08-26 12:43:00,
2013-08-26 08:53:00,60.2,58.8,30.24,South,190,0.0,0.0,95,0.00,,,0.00,Wunderground v.1.15,2013-08-26 12:53:00,
2013-08-26 08:58:00,60.8,59.1,30.24,South,190,0.0,0.0,94,0.00,,,0.00,Wunderground v.1.15,2013-08-26 12:58:00,
2013-08-26 09:06:00,61.4,59.7,30.24,South,187,1.0,1.0,94,0.00,,,0.00,Wunderground v.1.15,2013-08-26 13:06:00,
2013-08-26 09:11:00,61.7,59.7,30.24,SSE,167,0.0,2.0,93,0.00,,,0.00,Wunderground v.1.15,2013-08-26 13:11:00,
2013-08-26 09:17:00,62.8,60.1,30.24,SSW,196,0.0,2.0,91,0.00,,,0.00,Wunderground v.1.15,2013-08-26 13:17:00,
2013-08-26 09:22:00,63.7,60.7,30.24,SSW,202,1.0,1.0,90,0.00,,,0.00,Wunderground v.1.15,2013-08-26 13:22:00,
2013-08-26 09:28:00,64.3,61.0,30.24,SSW,202,0.0,1.0,89,0.00,,,0.00,Wunderground v.1.15,2013-08-26 13:28:00,
2013-08-26 09:35:00,65.1,60.8,30.24,SSW,202,0.0,1.0,86,0.00,,,0.00,Wunderground v.1.15,2013-08-26 13:35:00,
2013-08-26 09:41:00,66.1,61.5,30.24,South,182,0.0,1.0,85,0.00,,,0.00,Wunderground v.1.15,2013-08-26 13:41:00,
2013-08-26 09:46:00,66.7,61.7,30.23,South,182,0.0,1.0,84,0.00,,,0.00,Wunderground v.1.15,2013-08-26 13:46:00,
2013-08-26 09:51:00,67.4,62.1,30.23,SSW,192,0.0,1.0,83,0.00,,,0.00,Wunderground v.1.15,2013-08-26 13:51:00,
2013-08-26 09:56:00,67.7,62.3,30.22,South,171,1.0,2.0,83,0.00,,,0.00,Wunderground v.1.15,2013-08-26 13:56:00,
2013-08-26 10:02:00,68.4,62.3,30.22,SE,141,1.0,1.0,81,0.00,,,0.00,Wunderground v.1.15,2013-08-26 14:02:00,
2013-08-26 10:08:00,68.7,63.0,30.23,SE,141,0.0,2.0,82,0.00,,,0.00,Wunderground v.1.15,2013-08-26 14:08:00,
2013-08-26 10:14:00,69.2,63.1,30.23,SE,144,1.0,1.0,81,0.00,,,0.00,Wunderground v.1.15,2013-08-26 14:14:00,
2013-08-26 10:20:00,69.9,63.4,30.23,SSE,152,1.0,1.0,80,0.00,,,0.00,Wunderground v.1.15,2013-08-26 14:20:00,
2013-08-26 10:25:00,70.3,64.0,30.22,SSE,151,1.0,2.0,80,0.00,,,0.00,weatherlink.com 1.10,2013-08-26 14:25:00,
2013-08-26 10:36:00,70.9,64.8,30.23,SSE,151,1.0,1.0,81,0.00,,,0.00,Wunderground v.1.15,2013-08-26 14:36:00,
2013-08-26 10:41:00,70.7,64.9,30.23,SSE,151,1.0,1.0,82,0.00,,,0.00,Wunderground v.1.15,2013-08-26 14:41:00,
2013-08-26 10:47:00,71.7,64.1,30.22,South,171,1.0,1.0,77,0.00,,,0.00,Wunderground v.1.15,2013-08-26 14:47:00,
2013-08-26 10:52:00,72.0,64.4,30.22,South,171,1.0,1.0,77,0.00,,,0.00,Wunderground v.1.15,2013-08-26 14:52:00,
2013-08-26 10:58:00,73.1,64.3,30.21,South,180,1.0,2.0,74,0.00,,,0.00,Wunderground v.1.15,2013-08-26 14:58:00,
2013-08-26 11:06:00,73.5,64.7,30.21,South,186,1.0,1.0,74,0.00,,,0.00,Wunderground v.1.15,2013-08-26 15:06:00,
2013-08-26 11:12:00,74.4,64.4,30.21,SSE,166,1.0,1.0,71,0.00,,,0.00,Wunderground v.1.15,2013-08-26 15:12:00,
2013-08-26 11:18:00,74.9,64.9,30.21,SSW,207,1.0,1.0,71,0.00,,,0.00,Wunderground v.1.15,2013-08-26 15:18:00,
2013-08-26 11:23:00,75.4,64.1,30.21,ESE,109,1.0,2.0,68,0.00,,,0.00,Wunderground v.1.15,2013-08-26 15:23:00,
2013-08-26 11:29:00,76.6,62.1,30.20,NNW,343,1.0,2.0,61,0.00,,,0.00,Wunderground v.1.15,2013-08-26 15:29:00,
2013-08-26 11:34:00,76.6,61.7,30.20,ESE,111,1.0,3.0,60,0.00,,,0.00,Wunderground v.1.15,2013-08-26 15:34:00,
2013-08-26 11:39:00,76.8,62.3,30.20,SW,225,2.0,3.0,61,0.00,,,0.00,Wunderground v.1.15,2013-08-26 15:39:00,
2013-08-26 11:45:00,77.3,62.3,30.19,ENE,74,2.0,3.0,60,0.00,,,0.00,Wunderground v.1.15,2013-08-26 15:45:00,
2013-08-26 11:52:00,77.4,61.0,30.19,ESE,113,2.0,2.0,57,0.00,,,0.00,Wunderground v.1.15,2013-08-26 15:52:00,
2013-08-26 12:05:00,77.9,62.4,30.19,NNE,31,2.0,3.0,59,0.00,,,0.00,Wunderground v.1.15,2013-08-26 16:05:00,
2013-08-26 12:11:00,77.9,61.0,30.19,WSW,240,1.0,7.0,56,0.00,,,0.00,weatherlink.com 1.10,2013-08-26 16:11:00,
2013-08-26 12:16:00,77.9,61.9,30.18,SSE,148,2.0,3.0,58,0.00,,,0.00,Wunderground v.1.15,2013-08-26 16:16:00,
2013-08-26 12:21:00,78.4,62.9,30.18,East,98,2.0,3.0,59,0.00,,,0.00,Wunderground v.1.15,2013-08-26 16:21:00,
2013-08-26 12:26:00,78.5,62.0,30.18,ENE,75,1.0,3.0,58,0.00,,,0.00,weatherlink.com 1.10,2013-08-26 16:26:00,
2013-08-26 12:33:00,78.9,62.4,30.18,ESE,115,1.0,2.0,57,0.00,,,0.00,Wunderground v.1.15,2013-08-26 16:33:00,
2013-08-26 12:38:00,78.6,64.0,30.18,ENE,71,1.0,2.0,61,0.00,,,0.00,Wunderground v.1.15,2013-08-26 16:38:00,
2013-08-26 12:43:00,78.7,64.1,30.18,SSW,196,2.0,3.0,61,0.00,,,0.00,Wunderground v.1.15,2013-08-26 16:43:00,
2013-08-26 12:56:00,79.1,63.1,30.17,NNE,30,2.0,2.0,58,0.00,,,0.00,Wunderground v.1.15,2013-08-26 16:56:00,
2013-08-26 13:02:00,79.5,62.9,30.17,East,90,2.0,5.0,57,0.00,,,0.00,Wunderground v.1.15,2013-08-26 17:02:00,
2013-08-26 13:07:00,79.8,63.2,30.17,SE,126,2.0,5.0,57,0.00,,,0.00,Wunderground v.1.15,2013-08-26 17:07:00,
2013-08-26 13:12:00,80.0,64.4,30.16,SSW,203,1.0,3.0,59,0.00,,,0.00,Wunderground v.1.15,2013-08-26 17:12:00,
2013-08-26 13:18:00,79.9,62.8,30.16,SW,224,1.0,3.0,56,0.00,,,0.00,Wunderground v.1.15,2013-08-26 17:18:00,
2013-08-26 13:23:00,80.5,63.9,30.16,ESE,107,1.0,2.0,57,0.00,,,0.00,Wunderground v.1.15,2013-08-26 17:23:00,
2013-08-26 13:28:00,81.3,65.1,30.15,ENE,59,1.0,2.0,58,0.00,,,0.00,Wunderground v.1.15,2013-08-26 17:28:00,
2013-08-26 13:33:00,80.8,63.6,30.15,South,190,1.0,2.0,56,0.00,,,0.00,Wunderground v.1.15,2013-08-26 17:33:00,
2013-08-26 13:43:00,81.1,64.4,30.14,NW,309,1.0,1.0,57,0.00,,,0.00,Wunderground v.1.15,2013-08-26 17:43:00,
2013-08-26 13:51:00,81.2,63.5,30.14,NNE,12,1.0,1.0,55,0.00,,,0.00,Wunderground v.1.15,2013-08-26 17:51:00,
2013-08-26 13:56:00,81.9,64.1,30.13,ESE,110,1.0,2.0,55,0.00,,,0.00,Wunderground v.1.15,2013-08-26 17:56:00,
2013-08-26 14:01:00,81.6,63.9,30.13,ENE,57,2.0,2.0,55,0.00,,,0.00,Wunderground v.1.15,2013-08-26 18:01:00,
2013-08-26 14:07:00,82.7,64.9,30.13,ENE,61,2.0,2.0,55,0.00,,,0.00,Wunderground v.1.15,2013-08-26 18:07:00,
2013-08-26 14:13:00,81.9,64.0,30.12,South,171,1.0,3.0,54,0.00,,,0.00,weatherlink.com 1.10,2013-08-26 18:13:00,
2013-08-26 14:22:00,84.2,65.2,30.12,ENE,67,1.0,1.0,53,0.00,,,0.00,Wunderground v.1.15,2013-08-26 18:22:00,
2013-08-26 14:27:00,83.5,64.0,30.11,SE,141,1.0,2.0,52,0.00,,,0.00,Wunderground v.1.15,2013-08-26 18:27:00,
2013-08-26 14:32:00,82.7,65.4,30.11,NE,48,1.0,1.0,56,0.00,,,0.00,Wunderground v.1.15,2013-08-26 18:32:00,
2013-08-26 14:38:00,82.9,62.9,30.10,ESE,116,1.0,4.0,51,0.00,,,0.00,Wunderground v.1.15,2013-08-26 18:38:00,
2013-08-26 14:44:00,82.6,63.7,30.10,ESE,110,2.0,2.0,53,0.00,,,0.00,Wunderground v.1.15,2013-08-26 18:44:00,
2013-08-26 14:52:00,83.2,64.8,30.10,SE,125,2.0,2.0,54,0.00,,,0.00,Wunderground v.1.15,2013-08-26 18:52:00,
2013-08-26 14:59:00,84.0,63.9,30.09,East,85,1.0,2.0,51,0.00,,,0.00,Wunderground v.1.15,2013-08-26 18:59:00,
2013-08-26 15:05:00,84.9,66.4,30.09,ENE,73,2.0,2.0,54,0.00,,,0.00,Wunderground v.1.15,2013-08-26 19:05:00,
2013-08-26 15:10:00,83.7,64.8,30.09,ESE,107,2.0,3.0,53,0.00,,,0.00,Wunderground v.1.15,2013-08-26 19:10:00,
2013-08-26 15:15:00,83.0,62.4,30.09,SSE,148,2.0,3.0,50,0.00,,,0.00,Wunderground v.1.15,2013-08-26 19:15:00,
2013-08-26 15:21:00,83.5,62.9,30.09,ESE,119,2.0,2.0,50,0.00,,,0.00,Wunderground v.1.15,2013-08-26 19:21:00,
2013-08-26 15:26:00,83.5,64.6,30.08,ESE,116,2.0,3.0,53,0.00,,,0.00,Wunderground v.1.15,2013-08-26 19:26:00,
2013-08-26 15:32:00,83.6,63.6,30.08,East,95,2.0,2.0,51,0.00,,,0.00,Wunderground v.1.15,2013-08-26 19:32:00,
2013-08-26 15:37:00,83.1,63.7,30.08,ESE,108,2.0,3.0,52,0.00,,,0.00,Wunderground v.1.15,2013-08-26 19:37:00,
2013-08-26 15:46:00,83.4,64.0,30.08,ENE,71,2.0,5.0,53,0.00,,,0.00,weatherlink.com 1.10,2013-08-26 19:46:00,
2013-08-26 15:54:00,83.5,64.0,30.07,East,79,2.0,3.0,52,0.00,,,0.00,Wunderground v.1.15,2013-08-26 19:54:00,
2013-08-26 15:59:00,83.7,64.8,30.07,SE,144,2.0,3.0,53,0.00,,,0.00,Wunderground v.1.15,2013-08-26 19:59:00,
2013-08-26 16:04:00,83.1,63.1,30.07,ESE,123,2.0,4.0,51,0.00,,,0.00,Wunderground v.1.15,2013-08-26 20:04:00,
2013-08-26 16:09:00,83.0,64.1,30.07,NE,38,2.0,4.0,53,0.00,,,0.00,Wunderground v.1.15,2013-08-26 20:09:00,
2013-08-26 16:15:00,82.9,64.0,30.06,ENE,66,4.0,5.0,53,0.00,,,0.00,weatherlink.com 1.10,2013-08-26 20:15:00,
2013-08-26 16:21:00,83.1,65.3,30.06,East,81,2.0,2.0,55,0.00,,,0.00,Wunderground v.1.15,2013-08-26 20:21:00,
2013-08-26 16:26:00,82.8,63.9,30.06,ESE,103,2.0,2.0,53,0.00,,,0.00,Wunderground v.1.15,2013-08-26 20:26:00,
2013-08-26 16:32:00,82.5,65.2,30.06,ENE,71,1.0,2.0,56,0.00,,,0.00,Wunderground v.1.15,2013-08-26 20:32:00,
2013-08-26 16:38:00,82.0,65.3,30.05,ENE,65,2.0,2.0,57,0.00,,,0.00,Wunderground v.1.15,2013-08-26 20:38:00,
2013-08-26 16:43:00,82.2,65.4,30.04,ENE,69,1.0,2.0,57,0.00,,,0.00,Wunderground v.1.15,2013-08-26 20:43:00,
2013-08-26 16:48:00,82.4,66.1,30.04,SSE,160,1.0,2.0,58,0.00,,,0.00,Wunderground v.1.15,2013-08-26 20:48:00,
2013-08-26 16:55:00,81.6,66.4,30.04,East,80,1.0,2.0,60,0.00,,,0.00,Wunderground v.1.15,2013-08-26 20:55:00,
2013-08-26 17:00:00,81.8,64.6,30.04,WSW,239,2.0,2.0,56,0.00,,,0.00,Wunderground v.1.15,2013-08-26 21:00:00,
2013-08-26 17:06:00,81.9,65.2,30.03,SSW,195,2.0,3.0,57,0.00,,,0.00,Wunderground v.1.15,2013-08-26 21:06:00,
2013-08-26 17:11:00,81.7,65.0,30.03,East,90,2.0,2.0,57,0.00,,,0.00,Wunderground v.1.15,2013-08-26 21:11:00,
2013-08-26 17:16:00,81.7,65.0,30.03,South,171,3.0,4.0,57,0.00,,,0.00,weatherlink.com 1.10,2013-08-26 21:16:00,
2013-08-26 17:22:00,81.1,64.9,30.03,ESE,111,2.0,2.0,58,0.00,,,0.00,Wunderground v.1.15,2013-08-26 21:22:00,
2013-08-26 17:27:00,80.6,65.4,30.03,East,96,2.0,2.0,60,0.00,,,0.00,Wunderground v.1.15,2013-08-26 21:27:00,
2013-08-26 17:34:00,79.5,67.1,30.03,East,96,1.0,1.0,66,0.00,,,0.00,Wunderground v.1.15,2013-08-26 21:34:00,
2013-08-26 17:39:00,79.0,66.2,30.03,East,96,1.0,1.0,65,0.00,,,0.00,Wunderground v.1.15,2013-08-26 21:39:00,
2013-08-26 17:47:00,78.7,69.0,30.03,East,86,1.0,3.0,72,0.00,,,0.00,weatherlink.com 1.10,2013-08-26 21:47:00,
2013-08-26 17:52:00,77.8,68.0,30.03,East,86,1.0,1.0,72,0.00,,,0.00,Wunderground v.1.15,2013-08-26 21:52:00,
2013-08-26 17:58:00,77.4,69.2,30.02,East,86,0.0,1.0,76,0.00,,,0.00,Wunderground v.1.15,2013-08-26 21:58:00,
2013-08-26 18:04:00,76.9,68.8,30.02,East,86,0.0,1.0,76,0.00,,,0.00,Wunderground v.1.15,2013-08-26 22:04:00,
2013-08-26 18:09:00,77.3,68.0,30.02,East,86,0.0,1.0,73,0.00,,,0.00,Wunderground v.1.15,2013-08-26 22:09:00,
2013-08-26 18:15:00,77.0,69.2,30.02,East,86,0.0,2.0,77,0.00,,,0.00,Wunderground v.1.15,2013-08-26 22:15:00,
2013-08-26 18:20:00,76.3,68.9,30.02,East,86,0.0,0.0,78,0.00,,,0.00,Wunderground v.1.15,2013-08-26 22:20:00,
2013-08-26 18:25:00,75.7,68.7,30.02,East,86,0.0,0.0,79,0.00,,,0.00,Wunderground v.1.15,2013-08-26 22:25:00,
2013-08-26 18:31:00,75.5,68.5,30.02,East,86,0.0,1.0,79,0.00,,,0.00,Wunderground v.1.15,2013-08-26 22:31:00,
2013-08-26 18:36:00,75.1,68.5,30.01,East,86,0.0,1.0,80,0.00,,,0.00,Wunderground v.1.15,2013-08-26 22:36:00,
2013-08-26 18:42:00,74.7,68.5,30.01,East,86,0.0,0.0,81,0.00,,,0.00,Wunderground v.1.15,2013-08-26 22:42:00,
2013-08-26 18:50:00,74.2,68.0,30.01,East,86,0.0,1.0,82,0.00,,,0.00,weatherlink.com 1.10,2013-08-26 22:50:00,
2013-08-26 18:55:00,73.8,68.0,30.01,East,86,0.0,0.0,82,0.00,,,0.00,Wunderground v.1.15,2013-08-26 22:55:00,
2013-08-26 19:00:00,73.6,67.8,30.02,East,86,0.0,0.0,82,0.00,,,0.00,Wunderground v.1.15,2013-08-26 23:00:00,
2013-08-26 19:06:00,73.3,68.9,30.02,East,86,0.0,0.0,86,0.00,,,0.00,Wunderground v.1.15,2013-08-26 23:06:00,
2013-08-26 19:11:00,72.9,68.5,30.02,East,86,0.0,0.0,86,0.00,,,0.00,Wunderground v.1.15,2013-08-26 23:11:00,
2013-08-26 19:16:00,72.5,67.7,30.02,East,86,0.0,0.0,85,0.00,,,0.00,Wunderground v.1.15,2013-08-26 23:16:00,
2013-08-26 19:22:00,72.5,68.0,30.02,East,86,0.0,1.0,86,0.00,,,0.00,weatherlink.com 1.10,2013-08-26 23:22:00,
2013-08-26 19:27:00,72.2,68.8,30.02,East,86,0.0,0.0,89,0.00,,,0.00,Wunderground v.1.15,2013-08-26 23:27:00,
2013-08-26 19:32:00,71.9,68.2,30.02,East,86,0.0,0.0,88,0.00,,,0.00,Wunderground v.1.15,2013-08-26 23:32:00,
2013-08-26 19:41:00,71.4,68.3,30.02,East,86,0.0,0.0,90,0.00,,,0.00,Wunderground v.1.15,2013-08-26 23:41:00,
2013-08-26 19:46:00,71.2,68.1,30.02,East,86,0.0,0.0,90,0.00,,,0.00,Wunderground v.1.15,2013-08-26 23:46:00,
2013-08-26 19:52:00,70.9,67.8,30.02,East,86,0.0,0.0,90,0.00,,,0.00,Wunderground v.1.15,2013-08-26 23:52:00,
2013-08-26 19:57:00,70.6,67.5,30.02,East,86,0.0,0.0,90,0.00,,,0.00,Wunderground v.1.15,2013-08-26 23:57:00,
2013-08-26 20:03:00,70.3,67.5,30.03,East,86,0.0,1.0,91,0.00,,,0.00,Wunderground v.1.15,2013-08-27 00:03:00,
2013-08-26 20:08:00,70.3,67.5,30.03,East,86,0.0,1.0,91,0.00,,,0.00,Wunderground v.1.15,2013-08-27 00:08:00,
2013-08-26 20:15:00,70.1,67.7,30.04,East,86,0.0,0.0,92,0.00,,,0.00,Wunderground v.1.15,2013-08-27 00:15:00,
2013-08-26 20:21:00,69.9,67.8,30.04,East,86,0.0,0.0,93,0.00,,,0.00,Wunderground v.1.15,2013-08-27 00:21:00,
2013-08-26 20:26:00,69.7,67.6,30.04,East,86,0.0,0.0,93,0.00,,,0.00,Wunderground v.1.15,2013-08-27 00:26:00,
2013-08-26 20:32:00,69.6,67.5,30.04,East,86,0.0,0.0,93,0.00,,,0.00,Wunderground v.1.15,2013-08-27 00:32:00,
2013-08-26 20:38:00,69.3,67.5,30.04,East,86,0.0,0.0,94,0.00,,,0.00,Wunderground v.1.15,2013-08-27 00:38:00,
2013-08-26 20:43:00,69.1,67.0,30.04,East,86,0.0,1.0,93,0.00,,,0.00,Wunderground v.1.15,2013-08-27 00:43:00,
2013-08-26 20:49:00,68.7,66.6,30.04,East,86,0.0,1.0,93,0.00,,,0.00,Wunderground v.1.15,2013-08-27 00:49:00,
2013-08-26 20:55:00,68.4,66.6,30.04,East,86,0.0,0.0,94,0.00,,,0.00,Wunderground v.1.15,2013-08-27 00:55:00,
2013-08-26 21:00:00,68.2,66.4,30.04,East,86,0.0,1.0,94,0.00,,,0.00,Wunderground v.1.15,2013-08-27 01:00:00,
2013-08-26 21:06:00,68.2,67.0,30.04,East,86,0.0,1.0,94,0.00,,,0.00,weatherlink.com 1.10,2013-08-27 01:06:00,
2013-08-26 21:11:00,68.0,66.2,30.04,East,86,0.0,0.0,94,0.00,,,0.00,Wunderground v.1.15,2013-08-27 01:11:00,
2013-08-26 21:16:00,67.9,66.1,30.04,NE,55,0.0,2.0,94,0.00,,,0.00,Wunderground v.1.15,2013-08-27 01:16:00,
2013-08-26 21:22:00,67.6,65.8,30.04,NE,55,1.0,1.0,94,0.00,,,0.00,Wunderground v.1.15,2013-08-27 01:22:00,
2013-08-26 21:28:00,67.4,65.9,30.04,NE,55,0.0,1.0,95,0.00,,,0.00,Wunderground v.1.15,2013-08-27 01:28:00,
2013-08-26 21:34:00,67.3,65.8,30.05,NE,55,0.0,1.0,95,0.00,,,0.00,Wunderground v.1.15,2013-08-27 01:34:00,
2013-08-26 21:40:00,67.3,65.8,30.05,East,93,1.0,1.0,95,0.00,,,0.00,Wunderground v.1.15,2013-08-27 01:40:00,
2013-08-26 21:47:00,67.3,65.8,30.05,SE,140,1.0,2.0,95,0.00,,,0.00,Wunderground v.1.15,2013-08-27 01:47:00,
2013-08-26 22:05:00,66.9,66.0,30.05,SE,140,0.0,1.0,95,0.00,,,0.00,weatherlink.com 1.10,2013-08-27 02:05:00,
2013-08-26 22:20:00,66.5,65.0,30.05,SE,140,0.0,1.0,95,0.00,,,0.00,weatherlink.com 1.10,2013-08-27 02:20:00,
2013-08-26 22:35:00,66.2,65.0,30.04,SE,140,1.0,2.0,96,0.00,,,0.00,weatherlink.com 1.10,2013-08-27 02:35:00,
2013-08-26 22:41:00,65.9,64.4,30.05,SE,140,1.0,1.0,95,0.00,,,0.00,Wunderground v.1.15,2013-08-27 02:41:00,
2013-08-26 22:46:00,65.9,64.7,30.05,SE,140,0.0,0.0,96,0.00,,,0.00,Wunderground v.1.15,2013-08-27 02:46:00,
2013-08-26 22:53:00,65.8,64.0,30.05,SE,140,0.0,1.0,95,0.00,,,0.00,weatherlink.com 1.10,2013-08-27 02:53:00,
2013-08-26 23:00:00,65.6,64.4,30.04,SE,140,0.0,0.0,96,0.00,,,0.00,Wunderground v.1.15,2013-08-27 03:00:00,
2013-08-26 23:06:00,65.5,64.3,30.04,SE,140,1.0,1.0,96,0.00,,,0.00,Wunderground v.1.15,2013-08-27 03:06:00,
2013-08-26 23:12:00,65.9,64.4,30.03,SE,140,1.0,1.0,95,0.00,,,0.00,Wunderground v.1.15,2013-08-27 03:12:00,
2013-08-26 23:17:00,66.0,64.5,30.03,SE,140,1.0,1.0,95,0.00,,,0.00,Wunderground v.1.15,2013-08-27 03:17:00,
2013-08-26 23:23:00,66.4,64.6,30.03,SE,140,1.0,1.0,94,0.00,,,0.00,Wunderground v.1.15,2013-08-27 03:23:00,
2013-08-26 23:29:00,66.2,64.4,30.03,SE,140,1.0,1.0,94,0.00,,,0.00,Wunderground v.1.15,2013-08-27 03:29:00,
2013-08-26 23:36:00,65.8,64.0,30.03,SE,140,1.0,2.0,95,0.00,,,0.00,weatherlink.com 1.10,2013-08-27 03:36:00,
2013-08-26 23:42:00,65.7,64.2,30.02,SE,140,0.0,1.0,95,0.00,,,0.00,Wunderground v.1.15,2013-08-27 03:42:00,
2013-08-26 23:48:00,65.6,64.1,30.02,SE,140,1.0,2.0,95,0.00,,,0.00,Wunderground v.1.15,2013-08-27 03:48:00,
2013-08-26 23:53:00,65.4,64.2,30.01,South,190,1.0,2.0,96,0.00,,,0.00,Wunderground v.1.15,2013-08-27 03:53:00,
2013-08-26 23:58:00,65.6,64.1,30.01,South,190,1.0,2.0,95,0.00,,,0.00,Wunderground v.1.15,2013-08-27 03:58:00,